Time,TemperatureF,DewpointF,PressureIn,WindDirection,WindDirectionDegrees,WindSpeedMPH,WindSpeedGustMPH,Humidity,HourlyPrecipIn,Conditions,Clouds,dailyrainin,SolarRadiationWatts/m^2,SoftwareType,DateUTC
2013-11-07 00:01:00,54.4,47.7,29.95,SSW,202,11.1,19.6,78,0.00,CLR,,0.00,0.0,WeatherDisplay:10.37,2013-11-07 05:01:00,
2013-11-07 00:06:00,54.5,47.8,29.95,SSW,192,9.9,15.0,78,0.00,CLR,,0.00,0.0,WeatherDisplay:10.37,2013-11-07 05:06:00,
2013-11-07 00:11:00,54.8,48.1,29.95,SSW,198,11.1,17.3,78,0.00,CLR,,0.00,0.0,WeatherDisplay:10.37,2013-11-07 05:11:00,
2013-11-07 00:16:00,54.9,48.2,29.94,SSW,194,5.8,13.0,78,0.00,CLR,,0.00,0.0,WeatherDisplay:10.37,2013-11-07 05:16:00,
2013-11-07 00:21:00,55.0,47.9,29.94,SSW,195,8.1,11.5,77,0.00,CLR,,0.00,0.0,WeatherDisplay:10.37,2013-11-07 05:21:00,
2013-11-07 00:26:00,55.0,47.9,29.94,SSW,207,8.1,19.6,77,0.00,CLR,,0.00,0.0,WeatherDisplay:10.37,2013-11-07 05:26:00,
2013-11-07 00:31:00,55.2,48.1,29.94,South,190,10.7,19.6,77,0.00,CLR,,0.00,0.0,WeatherDisplay:10.37,2013-11-07 05:31:00,
2013-11-07 00:36:00,55.3,48.2,29.94,SSW,199,8.3,11.5,77,0.00,CLR,,0.00,0.0,WeatherDisplay:10.37,2013-11-07 05:36:00,
2013-11-07 00:41:00,55.4,48.3,29.93,SSW,197,4.8,11.5,77,0.00,CLR,,0.00,0.0,WeatherDisplay:10.37,2013-11-07 05:41:00,
2013-11-07 00:46:00,55.5,48.4,29.93,SSW,202,4.6,10.4,77,0.00,CLR,,0.00,0.0,WeatherDisplay:10.37,2013-11-07 05:46:00,
2013-11-07 00:51:00,55.6,48.5,29.93,South,186,12.4,19.6,77,0.00,CLR,,0.00,0.0,WeatherDisplay:10.37,2013-11-07 05:51:00,
2013-11-07 00:56:00,55.7,48.6,29.92,SSW,195,7.4,15.0,77,0.00,CLR,,0.00,0.0,WeatherDisplay:10.37,2013-11-07 05:56:00,
2013-11-07 01:01:00,55.8,48.7,29.92,South,170,9.2,15.0,77,0.00,CLR,,0.00,0.0,WeatherDisplay:10.37,2013-11-07 06:01:00,
2013-11-07 01:06:00,55.9,48.8,29.92,South,173,4.0,11.5,77,0.00,CLR,,0.00,0.0,WeatherDisplay:10.37,2013-11-07 06:06:00,
2013-11-07 01:11:00,55.9,48.8,29.92,SSW,209,7.5,12.7,77,0.00,CLR,,0.00,0.0,WeatherDisplay:10.37,2013-11-07 06:11:00,
2013-11-07 01:16:00,56.0,48.9,29.91,SW,225,9.7,19.6,77,0.00,CLR,,0.00,0.0,WeatherDisplay:10.37,2013-11-07 06:16:00,
2013-11-07 01:21:00,56.0,48.9,29.91,SSW,196,8.7,15.0,77,0.00,CLR,,0.00,0.0,WeatherDisplay:10.37,2013-11-07 06:21:00,
2013-11-07 01:26:00,55.9,48.8,29.91,SSW,208,9.9,20.7,77,0.00,CLR,,0.00,0.0,WeatherDisplay:10.37,2013-11-07 06:26:00,
2013-11-07 01:31:00,55.9,48.8,29.91,SSW,193,11.4,20.7,77,0.00,CLR,,0.00,0.0,WeatherDisplay:10.37,2013-11-07 06:31:00,
2013-11-07 01:36:00,56.0,48.9,29.90,SW,221,14.0,29.9,77,0.00,CLR,,0.00,0.0,WeatherDisplay:10.37,2013-11-07 06:36:00,
2013-11-07 01:41:00,56.0,48.9,29.90,SSW,200,5.9,11.5,77,0.00,CLR,,0.00,0.0,WeatherDisplay:10.37,2013-11-07 06:41:00,
2013-11-07 01:46:00,56.1,49.0,29.90,SSW,208,11.6,19.6,77,0.00,CLR,,0.00,0.0,WeatherDisplay:10.37,2013-11-07 06:46:00,
2013-11-07 01:51:00,56.1,49.0,29.89,SSW,200,12.3,19.6,77,0.00,CLR,,0.00,0.0,WeatherDisplay:10.37,2013-11-07 06:51:00,
2013-11-07 01:56:00,56.1,49.0,29.89,SSW,205,9.6,18.4,77,0.00,CLR,,0.00,0.0,WeatherDisplay:10.37,2013-11-07 06:56:00,
2013-11-07 02:01:00,56.0,48.9,29.90,South,178,7.8,18.0,77,0.00,CLR,,0.00,0.0,WeatherDisplay:10.37,2013-11-07 07:01:00,
2013-11-07 02:06:00,56.0,48.9,29.89,South,169,11.5,19.6,77,0.00,CLR,,0.00,0.0,WeatherDisplay:10.37,2013-11-07 07:06:00,
2013-11-07 02:11:00,56.0,48.9,29.89,SSW,208,12.1,20.7,77,0.00,CLR,,0.00,0.0,WeatherDisplay:10.37,2013-11-07 07:11:00,
2013-11-07 02:16:00,55.9,48.8,29.89,SW,231,3.9,10.4,77,0.00,CLR,,0.00,0.0,WeatherDisplay:10.37,2013-11-07 07:16:00,
2013-11-07 02:21:00,55.9,49.1,29.89,SSW,196,9.9,16.1,78,0.00,CLR,,0.00,0.0,WeatherDisplay:10.37,2013-11-07 07:21:00,
2013-11-07 02:26:00,55.9,49.1,29.88,SW,221,10.0,16.1,78,0.00,CLR,,0.00,0.0,WeatherDisplay:10.37,2013-11-07 07:26:00,
2013-11-07 02:31:00,55.9,49.1,29.88,SSW,213,8.3,11.5,78,0.00,CLR,,0.00,0.0,WeatherDisplay:10.37,2013-11-07 07:31:00,
2013-11-07 02:36:00,55.9,48.8,29.88,SW,214,9.0,10.4,77,0.00,CLR,,0.00,0.0,WeatherDisplay:10.37,2013-11-07 07:36:00,
2013-11-07 02:41:00,56.0,48.9,29.88,South,190,7.4,13.8,77,0.00,CLR,,0.00,0.0,WeatherDisplay:10.37,2013-11-07 07:41:00,
2013-11-07 02:46:00,56.0,48.9,29.87,South,178,13.6,20.7,77,0.00,CLR,,0.00,0.0,WeatherDisplay:10.37,2013-11-07 07:46:00,
2013-11-07 02:51:00,56.0,48.9,29.87,South,184,6.3,12.7,77,0.00,CLR,,0.00,0.0,WeatherDisplay:10.37,2013-11-07 07:51:00,
2013-11-07 02:56:00,56.0,48.9,29.86,South,191,7.8,11.5,77,0.00,CLR,,0.00,0.0,WeatherDisplay:10.37,2013-11-07 07:56:00,
2013-11-07 03:01:00,56.0,48.9,29.86,SSW,212,9.0,16.1,77,0.00,CLR,,0.00,0.0,WeatherDisplay:10.37,2013-11-07 08:01:00,
2013-11-07 03:06:00,56.1,49.0,29.86,SSW,198,5.3,11.5,77,0.00,CLR,,0.00,0.0,WeatherDisplay:10.37,2013-11-07 08:06:00,
2013-11-07 03:11:00,56.1,49.0,29.86,SSW,198,7.3,10.4,77,0.00,CLR,,0.00,0.0,WeatherDisplay:10.37,2013-11-07 08:11:00,
2013-11-07 03:16:00,56.1,49.0,29.85,WSW,240,8.2,13.8,77,0.00,CLR,,0.00,0.0,WeatherDisplay:10.37,2013-11-07 08:16:00,
2013-11-07 03:21:00,56.1,49.0,29.85,SSW,199,5.3,11.5,77,0.00,CLR,,0.00,0.0,WeatherDisplay:10.37,2013-11-07 08:21:00,
2013-11-07 03:26:00,56.2,49.1,29.85,SSW,202,6.9,18.4,77,0.00,CLR,,0.00,0.0,WeatherDisplay:10.37,2013-11-07 08:26:00,
2013-11-07 03:31:00,56.2,49.1,29.85,SSW,198,9.1,19.6,77,0.00,CLR,,0.00,0.0,WeatherDisplay:10.37,2013-11-07 08:31:00,
2013-11-07 03:36:00,56.2,49.1,29.85,South,174,8.3,20.0,77,0.00,CLR,,0.00,0.0,WeatherDisplay:10.37,2013-11-07 08:36:00,
2013-11-07 03:41:00,56.2,49.1,29.85,SSW,211,7.9,16.1,77,0.00,CLR,,0.00,0.0,WeatherDisplay:10.37,2013-11-07 08:41:00,
2013-11-07 03:47:00,56.2,49.1,29.85,SSW,213,6.8,16.1,77,0.00,CLR,,0.00,0.0,WeatherDisplay:10.37,2013-11-07 08:47:00,
2013-11-07 03:52:00,56.2,49.1,29.84,South,191,8.9,13.8,77,0.00,CLR,,0.00,0.0,WeatherDisplay:10.37,2013-11-07 08:52:00,
2013-11-07 03:57:00,56.2,49.1,29.84,SE,140,4.6,15.0,77,0.00,CLR,,0.00,0.0,WeatherDisplay:10.37,2013-11-07 08:57:00,
2013-11-07 04:02:00,56.2,49.1,29.85,SSW,202,8.2,19.6,77,0.00,CLR,,0.00,0.0,WeatherDisplay:10.37,2013-11-07 09:02:00,
2013-11-07 04:07:00,56.2,49.1,29.84,SSW,198,8.8,16.0,77,0.00,CLR,,0.00,0.0,WeatherDisplay:10.37,2013-11-07 09:07:00,
2013-11-07 04:12:00,56.3,48.8,29.84,SSW,194,8.4,11.5,76,0.00,CLR,,0.00,0.0,WeatherDisplay:10.37,2013-11-07 09:12:00,
2013-11-07 04:17:00,56.3,48.8,29.84,SSW,205,9.6,13.8,76,0.00,CLR,,0.00,0.0,WeatherDisplay:10.37,2013-11-07 09:17:00,
2013-11-07 04:22:00,56.2,49.1,29.85,SSE,163,5.1,8.1,77,0.00,CLR,,0.00,0.0,WeatherDisplay:10.37,2013-11-07 09:22:00,
2013-11-07 04:27:00,56.2,49.1,29.85,South,188,8.3,18.4,77,0.00,CLR,,0.00,0.0,WeatherDisplay:10.37,2013-11-07 09:27:00,
2013-11-07 04:32:00,56.3,49.2,29.85,SSW,203,11.4,20.7,77,0.00,CLR,,0.00,0.0,WeatherDisplay:10.37,2013-11-07 09:32:00,
2013-11-07 04:37:00,56.3,49.2,29.84,SW,217,9.5,23.0,77,0.00,CLR,,0.00,0.0,WeatherDisplay:10.37,2013-11-07 09:37:00,
2013-11-07 04:42:00,56.3,49.2,29.83,SW,218,13.4,23.0,77,0.00,CLR,,0.00,0.0,WeatherDisplay:10.37,2013-11-07 09:42:00,
2013-11-07 04:47:00,56.3,49.2,29.83,South,175,10.9,19.6,77,0.00,CLR,,0.00,0.0,WeatherDisplay:10.37,2013-11-07 09:47:00,
2013-11-07 04:52:00,56.2,49.1,29.83,SW,223,7.3,11.5,77,0.00,CLR,,0.00,0.0,WeatherDisplay:10.37,2013-11-07 09:52:00,
2013-11-07 04:57:00,56.2,49.1,29.83,SSW,198,6.3,15.0,77,0.00,CLR,,0.00,0.0,WeatherDisplay:10.37,2013-11-07 09:57:00,
2013-11-07 05:02:00,56.2,49.1,29.83,SSW,198,7.6,11.5,77,0.00,CLR,,0.00,0.0,WeatherDisplay:10.37,2013-11-07 10:02:00,
2013-11-07 05:07:00,56.2,49.1,29.82,South,190,9.5,15.0,77,0.00,CLR,,0.00,0.0,WeatherDisplay:10.37,2013-11-07 10:07:00,
2013-11-07 05:12:00,56.2,49.1,29.82,SSW,212,7.2,13.8,77,0.00,CLR,,0.00,0.0,WeatherDisplay:10.37,2013-11-07 10:12:00,
2013-11-07 05:17:00,56.2,49.1,29.82,South,186,9.4,16.1,77,0.00,CLR,,0.00,0.0,WeatherDisplay:10.37,2013-11-07 10:17:00,
2013-11-07 05:22:00,56.2,49.4,29.81,SW,215,5.8,9.2,78,0.00,CLR,,0.00,0.0,WeatherDisplay:10.37,2013-11-07 10:22:00,
2013-11-07 05:27:00,56.2,49.4,29.81,SW,223,8.3,11.5,78,0.00,CLR,,0.00,0.0,WeatherDisplay:10.37,2013-11-07 10:27:00,
2013-11-07 05:32:00,56.2,49.4,29.80,SSW,197,9.6,15.0,78,0.00,CLR,,0.00,0.0,WeatherDisplay:10.37,2013-11-07 10:32:00,
2013-11-07 05:37:00,56.2,49.4,29.80,South,188,7.7,11.5,78,0.00,CLR,,0.00,0.0,WeatherDisplay:10.37,2013-11-07 10:37:00,
2013-11-07 05:42:00,56.2,49.4,29.80,SW,214,3.5,6.9,78,0.00,CLR,,0.00,0.0,WeatherDisplay:10.37,2013-11-07 10:42:00,
2013-11-07 05:47:00,56.2,49.4,29.80,South,191,5.1,10.4,78,0.00,CLR,,0.00,0.0,WeatherDisplay:10.37,2013-11-07 10:47:00,
2013-11-07 05:52:00,56.2,49.8,29.79,South,189,6.6,14.0,79,0.00,CLR,,0.00,0.0,WeatherDisplay:10.37,2013-11-07 10:52:00,
2013-11-07 05:57:00,56.2,49.8,29.78,SSW,195,6.1,11.5,79,0.00,CLR,,0.00,0.0,WeatherDisplay:10.37,2013-11-07 10:57:00,
2013-11-07 06:02:00,56.2,49.8,29.78,SE,145,7.9,16.1,79,0.00,CLR,,0.00,0.0,WeatherDisplay:10.37,2013-11-07 11:02:00,
2013-11-07 06:07:00,56.2,49.8,29.78,South,182,7.6,13.8,79,0.00,CLR,,0.00,0.0,WeatherDisplay:10.37,2013-11-07 11:07:00,
2013-11-07 06:12:00,56.2,49.8,29.79,SSW,195,6.7,13.8,79,0.00,CLR,,0.00,0.0,WeatherDisplay:10.37,2013-11-07 11:12:00,
2013-11-07 06:17:00,56.3,49.9,29.78,SSW,205,9.4,15.0,79,0.00,CLR,,0.00,0.0,WeatherDisplay:10.37,2013-11-07 11:17:00,
2013-11-07 06:22:00,56.3,49.9,29.79,SW,217,4.8,8.1,79,0.00,CLR,,0.00,0.0,WeatherDisplay:10.37,2013-11-07 11:22:00,
2013-11-07 06:27:00,56.2,50.1,29.79,SW,224,7.7,17.3,80,0.00,CLR,,0.00,0.0,WeatherDisplay:10.37,2013-11-07 11:27:00,
2013-11-07 06:32:00,56.3,50.2,29.79,South,186,6.7,12.7,80,0.00,CLR,,0.00,0.0,WeatherDisplay:10.37,2013-11-07 11:32:00,
2013-11-07 06:34:00,56.3,50.2,29.80,SSW,210,5.2,9.2,80,0.00,CLR,,0.00,0.0,WeatherDisplay:10.37,2013-11-07 11:34:00,
2013-11-07 06:39:00,56.3,50.2,29.80,WSW,242,5.2,8.1,80,0.00,CLR,,0.00,0.0,WeatherDisplay:10.37,2013-11-07 11:39:00,
2013-11-07 06:44:00,56.0,50.6,29.80,SW,236,6.2,9.2,82,0.02,RA,,0.02,0.0,WeatherDisplay:10.37,2013-11-07 11:44:00,
2013-11-07 06:49:00,55.4,51.0,29.80,SW,215,5.2,6.9,85,0.03,RA,,0.03,0.0,WeatherDisplay:10.37,2013-11-07 11:49:00,
2013-11-07 06:54:00,54.9,50.8,29.80,SSW,196,4.8,8.1,86,0.06,RA,,0.06,0.0,WeatherDisplay:10.37,2013-11-07 11:54:00,
2013-11-07 06:59:00,54.5,50.7,29.80,SSW,207,3.4,5.8,87,0.07,RA,,0.08,0.0,WeatherDisplay:10.37,2013-11-07 11:59:00,
2013-11-07 07:04:00,54.3,50.8,29.80,South,188,6.0,10.0,88,0.08,RA,,0.08,0.0,WeatherDisplay:10.37,2013-11-07 12:04:00,
2013-11-07 07:09:00,54.1,50.9,29.80,SSW,195,3.5,5.0,89,0.10,RA,,0.10,0.0,WeatherDisplay:10.37,2013-11-07 12:09:00,
2013-11-07 07:14:00,54.0,50.8,29.80,SSW,193,2.0,4.6,89,0.11,RA,,0.11,0.0,WeatherDisplay:10.37,2013-11-07 12:14:00,
2013-11-07 07:19:00,53.9,51.0,29.80,SSW,200,5.1,5.1,90,0.11,RA,,0.12,5.7,WeatherDisplay:10.37,2013-11-07 12:19:00,
2013-11-07 07:24:00,53.8,50.9,29.80,South,190,4.9,9.2,90,0.12,RA,,0.12,5.7,WeatherDisplay:10.37,2013-11-07 12:24:00,
2013-11-07 07:29:00,53.8,50.9,29.80,SSW,192,1.5,6.0,90,0.12,RA,,0.12,5.7,WeatherDisplay:10.37,2013-11-07 12:29:00,
2013-11-07 07:34:00,53.7,51.1,29.80,SSW,193,2.6,4.6,91,0.13,RA,,0.13,5.7,WeatherDisplay:10.37,2013-11-07 12:34:00,
2013-11-07 07:39:00,53.8,51.2,29.80,SSW,211,3.3,6.9,91,0.14,RA,,0.14,10.2,WeatherDisplay:10.37,2013-11-07 12:39:00,
2013-11-07 07:44:00,53.7,51.1,29.80,SSW,205,3.4,5.0,91,0.12,RA,,0.14,13.6,WeatherDisplay:10.37,2013-11-07 12:44:00,
2013-11-07 07:49:00,53.8,51.2,29.81,SSW,206,4.6,6.9,91,0.12,RA,,0.15,13.6,WeatherDisplay:10.37,2013-11-07 12:49:00,
2013-11-07 07:54:00,53.8,51.2,29.81,SW,228,2.2,3.5,91,0.10,RA,,0.16,12.4,WeatherDisplay:10.37,2013-11-07 12:54:00,
2013-11-07 07:59:00,53.8,51.2,29.80,SSW,194,7.5,13.8,91,0.11,RA,,0.18,13.6,WeatherDisplay:10.37,2013-11-07 12:59:00,
2013-11-07 08:04:00,53.7,51.1,29.80,South,185,2.7,5.0,91,0.11,RA,,0.19,18.1,WeatherDisplay:10.37,2013-11-07 13:04:00,
2013-11-07 08:09:00,53.7,51.4,29.81,SSW,202,2.3,4.6,92,0.10,RA,,0.20,26.0,WeatherDisplay:10.37,2013-11-07 13:09:00,
2013-11-07 08:14:00,53.8,51.5,29.81,South,183,2.8,9.2,92,0.10,RA,,0.21,21.5,WeatherDisplay:10.37,2013-11-07 13:14:00,
2013-11-07 08:19:00,53.8,51.5,29.80,SSW,213,4.4,6.9,92,0.11,RA,,0.22,26.0,WeatherDisplay:10.37,2013-11-07 13:19:00,
2013-11-07 08:24:00,53.8,51.5,29.80,SW,216,4.2,6.9,92,0.11,RA,,0.23,29.4,WeatherDisplay:10.37,2013-11-07 13:24:00,
2013-11-07 08:29:00,53.9,51.6,29.80,South,188,4.3,7.0,92,0.11,RA,,0.23,26.0,WeatherDisplay:10.37,2013-11-07 13:29:00,
2013-11-07 08:34:00,53.9,51.6,29.80,SSW,193,2.6,9.2,92,0.11,RA,,0.24,23.7,WeatherDisplay:10.37,2013-11-07 13:34:00,
2013-11-07 08:39:00,53.9,51.6,29.80,SSW,207,3.1,4.6,92,0.11,RA,,0.24,20.3,WeatherDisplay:10.37,2013-11-07 13:39:00,
2013-11-07 08:44:00,54.0,51.7,29.80,SSW,197,2.3,4.0,92,0.10,OVC,,0.24,21.5,WeatherDisplay:10.37,2013-11-07 13:44:00,
2013-11-07 08:49:00,54.0,51.7,29.80,South,190,8.3,11.5,92,0.09,OVC,,0.24,20.3,WeatherDisplay:10.37,2013-11-07 13:49:00,
2013-11-07 08:54:00,53.9,51.6,29.84,WNW,284,7.7,13.8,92,0.09,RA,,0.28,0.0,WeatherDisplay:10.37,2013-11-07 13:54:00,
2013-11-07 08:59:00,53.2,50.0,29.84,WNW,290,5.7,11.5,89,0.14,RA,,0.32,15.8,WeatherDisplay:10.37,2013-11-07 13:59:00,
2013-11-07 09:04:00,52.6,49.8,29.84,WNW,295,7.1,11.5,90,0.14,RA,,0.33,23.7,WeatherDisplay:10.37,2013-11-07 14:04:00,
2013-11-07 09:09:00,51.9,49.1,29.84,WNW,284,8.4,11.5,90,0.14,RA,,0.34,15.8,WeatherDisplay:10.37,2013-11-07 14:09:00,
2013-11-07 09:14:00,51.3,48.5,29.84,WNW,290,5.7,8.1,90,0.14,RA,,0.35,18.1,WeatherDisplay:10.37,2013-11-07 14:14:00,
2013-11-07 09:19:00,50.9,48.1,29.84,WNW,303,6.2,11.5,90,0.14,RA,,0.36,23.7,WeatherDisplay:10.37,2013-11-07 14:19:00,
2013-11-07 09:24:00,50.4,47.6,29.84,NW,304,4.5,10.4,90,0.14,RA,,0.37,26.0,WeatherDisplay:10.37,2013-11-07 14:24:00,
2013-11-07 09:29:00,50.1,47.3,29.84,WNW,302,4.0,6.9,90,0.15,RA,,0.38,21.5,WeatherDisplay:10.37,2013-11-07 14:29:00,
2013-11-07 09:34:00,49.9,47.4,29.84,WNW,296,4.0,5.8,91,0.14,RA,,0.39,15.8,WeatherDisplay:10.37,2013-11-07 14:34:00,
2013-11-07 09:39:00,49.6,47.1,29.84,WNW,295,2.9,4.0,91,0.15,RA,,0.39,20.3,WeatherDisplay:10.37,2013-11-07 14:39:00,
2013-11-07 09:44:00,49.4,46.9,29.84,WNW,296,2.9,6.0,91,0.16,RA,,0.40,28.3,WeatherDisplay:10.37,2013-11-07 14:44:00,
2013-11-07 09:50:00,49.2,46.7,29.84,WNW,301,3.2,5.8,91,0.17,RA,,0.41,21.5,WeatherDisplay:10.37,2013-11-07 14:50:00,
2013-11-07 09:55:00,49.0,46.5,29.83,WNW,297,2.4,5.8,91,0.17,RA,,0.42,31.6,WeatherDisplay:10.37,2013-11-07 14:55:00,
2013-11-07 10:00:00,48.9,46.4,29.83,WNW,297,4.9,6.0,91,0.10,RA,,0.43,36.2,WeatherDisplay:10.37,2013-11-07 15:00:00,
2013-11-07 10:05:00,48.7,46.2,29.83,WNW,297,2.3,4.6,91,0.10,RA,,0.43,41.8,WeatherDisplay:10.37,2013-11-07 15:05:00,
2013-11-07 10:10:00,48.7,46.2,29.83,WNW,297,4.9,5.8,91,0.10,RA,,0.44,41.8,WeatherDisplay:10.37,2013-11-07 15:10:00,
2013-11-07 10:15:00,48.6,46.1,29.83,WNW,297,3.7,5.8,91,0.10,RA,,0.45,37.3,WeatherDisplay:10.37,2013-11-07 15:15:00,
2013-11-07 10:20:00,48.5,46.0,29.84,WNW,297,2.2,3.5,91,0.10,RA,,0.46,36.2,WeatherDisplay:10.37,2013-11-07 15:20:00,
2013-11-07 10:25:00,48.5,46.0,29.84,WNW,297,2.5,4.0,91,0.10,RA,,0.47,33.9,WeatherDisplay:10.37,2013-11-07 15:25:00,
2013-11-07 10:30:00,48.4,45.9,29.84,WNW,297,1.6,6.0,91,0.10,RA,,0.48,33.9,WeatherDisplay:10.37,2013-11-07 15:30:00,
2013-11-07 10:35:00,48.3,45.8,29.85,WNW,297,3.6,5.8,91,0.10,RA,,0.49,33.9,WeatherDisplay:10.37,2013-11-07 15:35:00,
2013-11-07 10:40:00,48.2,45.7,29.85,WNW,296,0.1,1.2,91,0.12,RA,,0.51,39.5,WeatherDisplay:10.37,2013-11-07 15:40:00,
2013-11-07 10:45:00,48.2,45.7,29.85,WNW,296,2.7,4.6,91,0.12,RA,,0.52,45.2,WeatherDisplay:10.37,2013-11-07 15:45:00,
2013-11-07 10:50:00,48.0,45.5,29.85,WNW,298,3.7,4.6,91,0.12,RA,,0.53,47.5,WeatherDisplay:10.37,2013-11-07 15:50:00,
2013-11-07 10:55:00,47.9,45.4,29.85,WNW,294,7.0,11.5,91,0.12,RA,,0.54,49.7,WeatherDisplay:10.37,2013-11-07 15:55:00,
2013-11-07 11:00:00,47.9,45.4,29.85,WNW,300,4.0,5.0,91,0.12,RA,,0.55,59.9,WeatherDisplay:10.37,2013-11-07 16:00:00,
2013-11-07 11:05:00,47.8,45.6,29.86,WNW,296,7.1,10.4,92,0.12,RA,,0.55,53.1,WeatherDisplay:10.37,2013-11-07 16:05:00,
2013-11-07 11:10:00,47.6,45.1,29.86,WNW,300,4.5,7.0,91,0.12,RA,,0.56,45.2,WeatherDisplay:10.37,2013-11-07 16:10:00,
2013-11-07 11:15:00,47.4,44.9,29.85,WNW,300,4.6,9.2,91,0.12,RA,,0.57,55.4,WeatherDisplay:10.37,2013-11-07 16:15:00,
2013-11-07 11:20:00,47.2,44.7,29.85,WNW,303,5.1,6.9,91,0.11,RA,,0.57,53.1,WeatherDisplay:10.37,2013-11-07 16:20:00,
2013-11-07 11:25:00,46.9,44.4,29.85,WNW,294,5.2,6.9,91,0.11,RA,,0.58,49.7,WeatherDisplay:10.37,2013-11-07 16:25:00,
2013-11-07 11:30:00,46.7,44.2,29.84,WNW,297,4.8,5.8,91,0.10,RA,,0.58,63.3,WeatherDisplay:10.37,2013-11-07 16:30:00,
2013-11-07 11:35:00,46.6,44.1,29.84,WNW,298,0.1,2.3,91,0.10,RA,,0.59,93.8,WeatherDisplay:10.37,2013-11-07 16:35:00,
2013-11-07 11:40:00,46.7,44.2,29.83,NW,313,1.5,2.3,91,0.08,RA,,0.59,131.1,WeatherDisplay:10.37,2013-11-07 16:40:00,
2013-11-07 11:45:00,46.7,44.2,29.84,NW,316,1.8,3.5,91,0.07,OVC,,0.59,47.5,WeatherDisplay:10.37,2013-11-07 16:45:00,
2013-11-07 11:50:00,46.6,44.1,29.83,NW,316,0.0,1.2,91,0.06,OVC,,0.59,70.1,WeatherDisplay:10.37,2013-11-07 16:50:00,
2013-11-07 11:55:00,46.7,44.2,29.83,NW,316,1.0,3.5,91,0.05,OVC,,0.59,67.8,WeatherDisplay:10.37,2013-11-07 16:55:00,
2013-11-07 12:00:00,46.6,44.1,29.83,NW,304,5.6,11.0,91,0.04,OVC,,0.59,110.7,WeatherDisplay:10.37,2013-11-07 17:00:00,
2013-11-07 12:05:00,46.5,44.0,29.82,WNW,296,4.3,6.0,91,0.04,OVC,,0.59,117.5,WeatherDisplay:10.37,2013-11-07 17:05:00,
2013-11-07 12:10:00,46.4,43.6,29.81,WNW,286,7.0,11.5,90,0.03,OVC,,0.59,91.5,WeatherDisplay:10.37,2013-11-07 17:10:00,
2013-11-07 12:15:00,46.4,43.6,29.81,WNW,294,2.2,4.6,90,0.03,OVC,,0.59,79.1,WeatherDisplay:10.37,2013-11-07 17:15:00,
2013-11-07 12:20:00,46.3,43.5,29.80,WNW,295,3.0,4.0,90,0.02,OVC,,0.59,81.4,WeatherDisplay:10.37,2013-11-07 17:20:00,
2013-11-07 12:25:00,46.3,43.5,29.81,WNW,295,2.5,4.0,90,0.01,OVC,,0.59,73.5,WeatherDisplay:10.37,2013-11-07 17:25:00,
2013-11-07 12:30:00,46.1,43.3,29.80,WNW,298,7.7,11.5,90,0.01,OVC,,0.59,57.6,WeatherDisplay:10.37,2013-11-07 17:30:00,
2013-11-07 12:35:00,45.9,42.8,29.81,WNW,295,4.0,9.2,89,0.01,OVC,,0.59,59.9,WeatherDisplay:10.37,2013-11-07 17:35:00,
2013-11-07 12:40:00,45.8,42.7,29.80,WNW,300,2.5,5.0,89,0.00,OVC,,0.59,45.2,WeatherDisplay:10.37,2013-11-07 17:40:00,
2013-11-07 12:45:00,45.6,42.5,29.81,WNW,296,4.6,5.8,89,0.00,OVC,,0.59,61.0,WeatherDisplay:10.37,2013-11-07 17:45:00,
2013-11-07 12:50:00,45.5,42.4,29.81,West,276,8.2,12.0,89,0.00,OVC,,0.59,67.8,WeatherDisplay:10.37,2013-11-07 17:50:00,
2013-11-07 12:55:00,45.5,42.4,29.82,WNW,296,5.6,7.0,89,0.00,OVC,,0.59,44.1,WeatherDisplay:10.37,2013-11-07 17:55:00,
2013-11-07 12:58:00,45.4,42.3,29.81,WNW,296,3.3,3.5,89,0.00,OVC,,0.59,39.5,WeatherDisplay:10.37,2013-11-07 17:58:00,
2013-11-07 13:03:00,45.3,42.2,29.81,West,281,7.7,10.4,89,0.00,OVC,,0.59,49.7,WeatherDisplay:10.37,2013-11-07 18:03:00,
2013-11-07 13:08:00,45.3,42.0,29.82,WNW,297,4.4,6.9,88,0.00,OVC,,0.59,57.6,WeatherDisplay:10.37,2013-11-07 18:08:00,
2013-11-07 13:13:00,45.2,41.9,29.81,WNW,300,5.1,8.1,88,0.00,OVC,,0.59,65.5,WeatherDisplay:10.37,2013-11-07 18:13:00,
2013-11-07 13:18:00,45.3,42.2,29.81,NW,317,2.6,4.6,89,0.00,OVC,,0.59,65.5,WeatherDisplay:10.37,2013-11-07 18:18:00,
2013-11-07 13:23:00,45.3,42.0,29.81,NW,305,4.4,6.9,88,0.00,OVC,,0.59,67.8,WeatherDisplay:10.37,2013-11-07 18:23:00,
2013-11-07 13:28:00,45.4,42.1,29.81,WNW,294,3.3,5.0,88,0.00,OVC,,0.59,73.5,WeatherDisplay:10.37,2013-11-07 18:28:00,
2013-11-07 13:33:00,45.4,42.1,29.82,WNW,299,4.9,6.9,88,0.00,OVC,,0.59,65.5,WeatherDisplay:10.37,2013-11-07 18:33:00,
2013-11-07 13:38:00,45.4,42.1,29.82,WNW,303,4.7,8.1,88,0.00,OVC,,0.59,49.7,WeatherDisplay:10.37,2013-11-07 18:38:00,
2013-11-07 13:43:00,45.4,41.8,29.83,WNW,293,6.8,9.2,87,0.00,OVC,,0.59,44.1,WeatherDisplay:10.37,2013-11-07 18:43:00,
2013-11-07 13:48:00,45.3,41.7,29.82,WNW,303,3.1,6.9,87,0.00,OVC,,0.59,37.3,WeatherDisplay:10.37,2013-11-07 18:48:00,
2013-11-07 13:53:00,45.1,41.2,29.82,WNW,296,7.0,10.4,86,0.00,OVC,,0.59,39.5,WeatherDisplay:10.37,2013-11-07 18:53:00,
2013-11-07 13:58:00,45.0,41.1,29.82,WNW,300,5.8,8.1,86,0.00,OVC,,0.59,37.3,WeatherDisplay:10.37,2013-11-07 18:58:00,
2013-11-07 14:03:00,45.0,41.1,29.82,NW,304,6.5,8.1,86,0.00,OVC,,0.59,29.4,WeatherDisplay:10.37,2013-11-07 19:03:00,
2013-11-07 14:08:00,44.9,40.7,29.83,WNW,296,8.5,11.5,85,0.00,OVC,,0.59,21.5,WeatherDisplay:10.37,2013-11-07 19:08:00,
2013-11-07 14:13:00,44.9,41.0,29.82,WNW,282,7.0,10.4,86,0.00,OVC,,0.59,37.3,WeatherDisplay:10.37,2013-11-07 19:13:00,
2013-11-07 14:18:00,44.9,40.7,29.83,WNW,300,5.9,9.2,85,0.00,OVC,,0.59,41.8,WeatherDisplay:10.37,2013-11-07 19:18:00,
2013-11-07 14:23:00,44.9,40.4,29.83,WNW,295,7.2,10.4,84,0.00,OVC,,0.59,45.2,WeatherDisplay:10.37,2013-11-07 19:23:00,
2013-11-07 14:28:00,45.0,40.8,29.82,NW,319,6.3,10.4,85,0.00,OVC,,0.59,47.5,WeatherDisplay:10.37,2013-11-07 19:28:00,
2013-11-07 14:33:00,44.9,40.4,29.83,WNW,284,6.4,9.2,84,0.00,OVC,,0.59,41.8,WeatherDisplay:10.37,2013-11-07 19:33:00,
2013-11-07 14:38:00,44.9,39.7,29.83,WNW,300,5.0,6.9,82,0.00,OVC,,0.59,37.3,WeatherDisplay:10.37,2013-11-07 19:38:00,
2013-11-07 14:43:00,44.7,38.9,29.83,WNW,300,4.8,8.1,80,0.00,OVC,,0.59,41.8,WeatherDisplay:10.37,2013-11-07 19:43:00,
2013-11-07 14:48:00,44.7,39.5,29.83,WNW,286,4.2,9.2,82,0.00,OVC,,0.59,47.5,WeatherDisplay:10.37,2013-11-07 19:48:00,
2013-11-07 14:53:00,44.6,39.1,29.83,WNW,297,4.1,6.0,81,0.00,OVC,,0.59,45.2,WeatherDisplay:10.37,2013-11-07 19:53:00,
2013-11-07 14:58:00,44.5,39.3,29.83,WNW,296,7.4,10.4,82,0.00,OVC,,0.59,41.8,WeatherDisplay:10.37,2013-11-07 19:58:00,
2013-11-07 15:03:00,44.4,39.6,29.83,WNW,297,2.9,4.6,83,0.00,OVC,,0.59,41.8,WeatherDisplay:10.37,2013-11-07 20:03:00,
2013-11-07 15:08:00,44.3,39.2,29.83,WNW,289,5.9,9.2,82,0.00,OVC,,0.59,41.8,WeatherDisplay:10.37,2013-11-07 20:08:00,
2013-11-07 15:13:00,44.2,39.4,29.83,WNW,302,4.4,5.8,83,0.00,CLR,,0.59,37.3,WeatherDisplay:10.37,2013-11-07 20:13:00,
2013-11-07 15:18:00,44.2,38.7,29.83,WNW,298,5.0,8.1,81,0.00,CLR,,0.59,36.2,WeatherDisplay:10.37,2013-11-07 20:18:00,
2013-11-07 15:23:00,44.2,38.4,29.83,WNW,298,2.8,4.0,80,0.00,CLR,,0.59,37.3,WeatherDisplay:10.37,2013-11-07 20:23:00,
2013-11-07 15:28:00,44.2,38.4,29.83,WNW,285,3.9,9.2,80,0.00,CLR,,0.59,39.5,WeatherDisplay:10.37,2013-11-07 20:28:00,
2013-11-07 15:33:00,44.2,39.4,29.83,WNW,285,1.6,2.3,83,0.00,CLR,,0.59,37.3,WeatherDisplay:10.37,2013-11-07 20:33:00,
2013-11-07 15:38:00,44.1,39.3,29.82,NW,308,5.4,8.1,83,0.00,CLR,,0.59,41.8,WeatherDisplay:10.37,2013-11-07 20:38:00,
2013-11-07 15:43:00,44.0,39.2,29.82,NW,313,4.9,8.1,83,0.00,CLR,,0.59,45.2,WeatherDisplay:10.37,2013-11-07 20:43:00,
2013-11-07 15:48:00,44.1,38.6,29.82,WNW,303,4.5,6.9,81,0.00,CLR,,0.59,91.5,WeatherDisplay:10.37,2013-11-07 20:48:00,
2013-11-07 15:53:00,44.4,38.9,29.83,WNW,297,3.8,6.9,81,0.00,CLR,,0.59,73.5,WeatherDisplay:10.37,2013-11-07 20:53:00,
2013-11-07 15:58:00,44.6,39.1,29.82,WNW,303,3.8,5.8,81,0.00,CLR,,0.59,70.1,WeatherDisplay:10.37,2013-11-07 20:58:00,
2013-11-07 16:03:00,44.7,38.6,29.83,WNW,303,1.9,4.0,79,0.00,CLR,,0.59,29.4,WeatherDisplay:10.37,2013-11-07 21:03:00,
2013-11-07 16:08:00,44.6,38.5,29.82,WNW,303,2.7,3.5,79,0.00,CLR,,0.59,29.4,WeatherDisplay:10.37,2013-11-07 21:08:00,
2013-11-07 16:13:00,44.4,38.3,29.83,WNW,296,3.6,6.9,79,0.00,CLR,,0.59,29.4,WeatherDisplay:10.37,2013-11-07 21:13:00,
2013-11-07 16:18:00,44.2,38.4,29.83,WNW,296,1.5,3.5,80,0.00,CLR,,0.59,23.7,WeatherDisplay:10.37,2013-11-07 21:18:00,
2013-11-07 16:23:00,44.0,38.2,29.82,WNW,296,1.3,3.5,80,0.00,CLR,,0.59,15.8,WeatherDisplay:10.37,2013-11-07 21:23:00,
2013-11-07 16:28:00,43.9,38.1,29.83,NW,315,4.3,5.8,80,0.00,CLR,,0.59,10.2,WeatherDisplay:10.37,2013-11-07 21:28:00,
2013-11-07 16:33:00,43.8,38.0,29.83,NW,315,1.4,3.5,80,0.00,CLR,,0.59,0.0,WeatherDisplay:10.37,2013-11-07 21:33:00,
2013-11-07 16:38:00,43.8,37.7,29.83,NW,313,2.5,5.8,79,0.00,CLR,,0.59,0.0,WeatherDisplay:10.37,2013-11-07 21:38:00,
2013-11-07 16:43:00,43.7,37.6,29.83,NW,313,0.0,0.0,79,0.00,CLR,,0.59,0.0,WeatherDisplay:10.37,2013-11-07 21:43:00,
2013-11-07 16:48:00,43.7,37.9,29.83,NW,313,1.9,3.5,80,0.00,CLR,,0.59,0.0,WeatherDisplay:10.37,2013-11-07 21:48:00,
2013-11-07 16:53:00,43.7,38.3,29.84,NW,308,5.5,6.0,81,0.00,CLR,,0.59,0.0,WeatherDisplay:10.37,2013-11-07 21:53:00,
2013-11-07 16:59:00,43.7,37.9,29.84,WNW,300,4.1,5.8,80,0.00,CLR,,0.59,0.0,WeatherDisplay:10.37,2013-11-07 21:59:00,
2013-11-07 17:04:00,43.8,37.7,29.84,WNW,296,2.9,4.6,79,0.00,CLR,,0.59,0.0,WeatherDisplay:10.37,2013-11-07 22:04:00,
2013-11-07 17:09:00,43.9,37.8,29.84,WNW,296,3.6,3.6,79,0.00,CLR,,0.59,0.0,WeatherDisplay:10.37,2013-11-07 22:09:00,
2013-11-07 17:14:00,43.9,37.8,29.84,WNW,296,4.9,5.0,79,0.00,CLR,,0.59,0.0,WeatherDisplay:10.37,2013-11-07 22:14:00,
2013-11-07 17:19:00,43.9,37.8,29.84,WNW,296,5.3,6.9,79,0.00,CLR,,0.59,0.0,WeatherDisplay:10.37,2013-11-07 22:19:00,
2013-11-07 17:24:00,43.8,38.3,29.84,WNW,300,3.5,6.0,81,0.00,CLR,,0.59,0.0,WeatherDisplay:10.37,2013-11-07 22:24:00,
2013-11-07 17:29:00,43.7,37.9,29.84,WNW,300,3.9,5.8,80,0.00,CLR,,0.59,0.0,WeatherDisplay:10.37,2013-11-07 22:29:00,
2013-11-07 17:34:00,43.6,37.8,29.84,WNW,294,6.6,6.6,80,0.00,CLR,,0.59,0.0,WeatherDisplay:10.37,2013-11-07 22:34:00,
2013-11-07 17:39:00,43.6,37.5,29.84,WNW,294,3.8,11.5,79,0.00,CLR,,0.59,0.0,WeatherDisplay:10.37,2013-11-07 22:39:00,
2013-11-07 17:44:00,43.6,37.5,29.85,WNW,290,7.3,7.3,79,0.00,CLR,,0.59,0.0,WeatherDisplay:10.37,2013-11-07 22:44:00,
2013-11-07 17:49:00,43.6,37.2,29.85,WNW,300,4.9,6.9,78,0.00,CLR,,0.59,0.0,WeatherDisplay:10.37,2013-11-07 22:49:00,
2013-11-07 17:54:00,43.6,36.9,29.85,NW,306,4.9,8.1,77,0.00,CLR,,0.59,0.0,WeatherDisplay:10.37,2013-11-07 22:54:00,
2013-11-07 17:59:00,43.6,36.5,29.86,WNW,296,4.9,9.0,76,0.00,CLR,,0.59,0.0,WeatherDisplay:10.37,2013-11-07 22:59:00,
2013-11-07 18:04:00,43.7,37.0,29.86,WNW,301,4.7,6.9,77,0.00,CLR,,0.59,0.0,WeatherDisplay:10.37,2013-11-07 23:04:00,
2013-11-07 18:09:00,43.6,36.9,29.86,WNW,300,5.3,6.9,77,0.00,CLR,,0.59,0.0,WeatherDisplay:10.37,2013-11-07 23:09:00,
2013-11-07 18:14:00,43.5,36.8,29.87,WNW,300,3.8,5.8,77,0.00,CLR,,0.59,0.0,WeatherDisplay:10.37,2013-11-07 23:14:00,
2013-11-07 18:19:00,43.5,36.1,29.87,WNW,301,2.7,4.0,75,0.00,CLR,,0.59,0.0,WeatherDisplay:10.37,2013-11-07 23:19:00,
2013-11-07 18:24:00,43.5,36.8,29.87,WNW,301,2.4,4.0,77,0.00,CLR,,0.59,0.0,WeatherDisplay:10.37,2013-11-07 23:24:00,
2013-11-07 18:29:00,43.6,36.5,29.87,WNW,300,4.0,4.6,76,0.00,CLR,,0.59,0.0,WeatherDisplay:10.37,2013-11-07 23:29:00,
2013-11-07 18:34:00,43.6,36.5,29.87,WNW,300,2.8,3.5,76,0.00,CLR,,0.59,0.0,WeatherDisplay:10.37,2013-11-07 23:34:00,
2013-11-07 18:39:00,43.6,36.9,29.87,NW,305,5.0,6.9,77,0.00,CLR,,0.59,0.0,WeatherDisplay:10.37,2013-11-07 23:39:00,
2013-11-07 18:44:00,43.5,36.8,29.88,WNW,302,8.1,12.7,77,0.00,CLR,,0.59,0.0,WeatherDisplay:10.37,2013-11-07 23:44:00,
2013-11-07 18:49:00,43.4,36.7,29.88,West,277,5.4,6.9,77,0.00,CLR,,0.59,0.0,WeatherDisplay:10.37,2013-11-07 23:49:00,
2013-11-07 18:54:00,43.2,37.1,29.88,NW,304,6.8,9.0,79,0.00,CLR,,0.59,0.0,WeatherDisplay:10.37,2013-11-07 23:54:00,
2013-11-07 18:59:00,43.0,36.9,29.88,WNW,298,3.9,6.9,79,0.00,CLR,,0.59,0.0,WeatherDisplay:10.37,2013-11-07 23:59:00,
2013-11-07 19:04:00,42.8,36.7,29.88,WNW,299,5.5,6.9,79,0.00,CLR,,0.59,0.0,WeatherDisplay:10.37,2013-11-08 00:04:00,
2013-11-07 19:09:00,42.6,36.9,29.89,WNW,301,6.4,9.2,80,0.00,CLR,,0.59,0.0,WeatherDisplay:10.37,2013-11-08 00:09:00,
2013-11-07 19:14:00,42.5,37.1,29.89,WNW,297,5.6,11.5,81,0.00,CLR,,0.59,0.0,WeatherDisplay:10.37,2013-11-08 00:14:00,
2013-11-07 19:19:00,42.3,37.2,29.89,WNW,290,6.4,11.5,82,0.00,CLR,,0.59,0.0,WeatherDisplay:10.37,2013-11-08 00:19:00,
2013-11-07 19:24:00,42.1,37.0,29.89,WNW,288,6.4,10.4,82,0.00,CLR,,0.59,0.0,WeatherDisplay:10.37,2013-11-08 00:24:00,
2013-11-07 19:29:00,41.9,36.8,29.89,West,279,7.7,9.2,82,0.00,CLR,,0.59,0.0,WeatherDisplay:10.37,2013-11-08 00:29:00,
2013-11-07 19:34:00,41.7,36.9,29.90,WNW,291,5.7,8.0,83,0.00,CLR,,0.59,0.0,WeatherDisplay:10.37,2013-11-08 00:34:00,
2013-11-07 19:39:00,41.5,36.7,29.89,WNW,298,4.5,5.8,83,0.00,CLR,,0.59,0.0,WeatherDisplay:10.37,2013-11-08 00:39:00,
2013-11-07 19:44:00,41.3,36.8,29.90,WNW,296,6.0,8.1,84,0.00,CLR,,0.59,0.0,WeatherDisplay:10.37,2013-11-08 00:44:00,
2013-11-07 19:49:00,41.1,36.3,29.90,WNW,298,6.0,7.0,83,0.00,CLR,,0.59,0.0,WeatherDisplay:10.37,2013-11-08 00:49:00,
2013-11-07 19:54:00,41.1,36.6,29.90,WNW,294,4.8,6.9,84,0.00,CLR,,0.59,0.0,WeatherDisplay:10.37,2013-11-08 00:54:00,
2013-11-07 19:59:00,40.9,36.4,29.89,WNW,300,3.6,4.6,84,0.00,CLR,,0.59,0.0,WeatherDisplay:10.37,2013-11-08 00:59:00,
2013-11-07 20:04:00,40.8,36.3,29.90,WNW,292,5.1,7.0,84,0.00,CLR,,0.59,0.0,WeatherDisplay:10.37,2013-11-08 01:04:00,
2013-11-07 20:09:00,40.7,35.9,29.90,NW,304,3.0,5.8,83,0.00,CLR,,0.59,0.0,WeatherDisplay:10.37,2013-11-08 01:09:00,
2013-11-07 20:14:00,40.6,36.1,29.90,WNW,303,2.0,3.5,84,0.00,CLR,,0.59,0.0,WeatherDisplay:10.37,2013-11-08 01:14:00,
2013-11-07 20:19:00,40.5,35.7,29.90,WNW,303,3.4,6.9,83,0.00,CLR,,0.59,0.0,WeatherDisplay:10.37,2013-11-08 01:19:00,
2013-11-07 20:24:00,40.5,36.0,29.90,WNW,303,3.7,6.0,84,0.00,CLR,,0.59,0.0,WeatherDisplay:10.37,2013-11-08 01:24:00,
2013-11-07 20:29:00,40.4,35.6,29.90,WNW,295,4.2,8.1,83,0.00,CLR,,0.59,0.0,WeatherDisplay:10.37,2013-11-08 01:29:00,
2013-11-07 20:34:00,40.4,35.9,29.90,WNW,294,7.4,9.0,84,0.00,CLR,,0.59,0.0,WeatherDisplay:10.37,2013-11-08 01:34:00,
2013-11-07 20:39:00,40.4,35.9,29.90,WNW,292,3.0,8.1,84,0.00,CLR,,0.59,0.0,WeatherDisplay:10.37,2013-11-08 01:39:00,
2013-11-07 20:44:00,40.4,35.6,29.91,WNW,300,4.4,10.4,83,0.00,CLR,,0.59,0.0,WeatherDisplay:10.37,2013-11-08 01:44:00,
2013-11-07 20:49:00,40.4,35.9,29.91,WNW,299,4.5,8.0,84,0.00,CLR,,0.59,0.0,WeatherDisplay:10.37,2013-11-08 01:49:00,
2013-11-07 20:54:00,40.4,35.6,29.90,NW,304,3.8,5.0,83,0.00,CLR,,0.59,0.0,WeatherDisplay:10.37,2013-11-08 01:54:00,
2013-11-07 20:59:00,40.3,35.5,29.91,WNW,303,3.3,8.1,83,0.00,CLR,,0.59,0.0,WeatherDisplay:10.37,2013-11-08 01:59:00,
2013-11-07 21:04:00,40.3,35.8,29.90,WNW,303,3.7,5.8,84,0.00,CLR,,0.59,0.0,WeatherDisplay:10.37,2013-11-08 02:04:00,
2013-11-07 21:10:00,40.2,35.8,29.90,WNW,302,4.0,6.9,84,0.00,CLR,,0.59,0.0,WeatherDisplay:10.37,2013-11-08 02:10:00,
2013-11-07 21:15:00,40.1,35.7,29.90,WNW,302,3.3,6.9,84,0.00,CLR,,0.59,0.0,WeatherDisplay:10.37,2013-11-08 02:15:00,
2013-11-07 21:20:00,40.1,35.4,29.90,WNW,302,3.3,5.8,83,0.00,CLR,,0.59,0.0,WeatherDisplay:10.37,2013-11-08 02:20:00,
2013-11-07 21:25:00,40.1,35.7,29.90,WNW,302,1.7,3.0,84,0.00,CLR,,0.59,0.0,WeatherDisplay:10.37,2013-11-08 02:25:00,
2013-11-07 21:30:00,40.0,35.3,29.90,WNW,302,4.4,8.1,83,0.00,CLR,,0.59,0.0,WeatherDisplay:10.37,2013-11-08 02:30:00,
2013-11-07 21:35:00,39.9,35.2,29.90,WNW,300,3.6,6.9,83,0.00,CLR,,0.59,0.0,WeatherDisplay:10.37,2013-11-08 02:35:00,
2013-11-07 21:40:00,39.9,35.5,29.90,WNW,300,3.5,4.6,84,0.00,CLR,,0.59,0.0,WeatherDisplay:10.37,2013-11-08 02:40:00,
2013-11-07 21:45:00,39.7,35.3,29.91,WNW,300,4.6,4.6,84,0.00,CLR,,0.59,0.0,WeatherDisplay:10.37,2013-11-08 02:45:00,
2013-11-07 21:50:00,39.6,34.9,29.90,WNW,300,1.6,3.5,83,0.00,CLR,,0.59,0.0,WeatherDisplay:10.37,2013-11-08 02:50:00,
2013-11-07 21:55:00,39.5,34.5,29.90,WNW,300,2.0,3.5,82,0.00,CLR,,0.59,0.0,WeatherDisplay:10.37,2013-11-08 02:55:00,
2013-11-07 22:00:00,39.3,34.6,29.90,WNW,300,3.2,4.6,83,0.00,CLR,,0.59,0.0,WeatherDisplay:10.37,2013-11-08 03:00:00,
2013-11-07 22:05:00,39.1,34.4,29.89,WNW,300,3.0,4.6,83,0.00,CLR,,0.59,0.0,WeatherDisplay:10.37,2013-11-08 03:05:00,
2013-11-07 22:10:00,39.0,34.6,29.89,WNW,300,1.3,2.3,84,0.00,CLR,,0.59,0.0,WeatherDisplay:10.37,2013-11-08 03:10:00,
2013-11-07 22:15:00,38.9,34.8,29.89,WNW,300,3.3,4.6,85,0.00,CLR,,0.59,0.0,WeatherDisplay:10.37,2013-11-08 03:15:00,
2013-11-07 22:20:00,38.9,35.1,29.90,WNW,300,3.0,3.5,86,0.00,CLR,,0.59,0.0,WeatherDisplay:10.37,2013-11-08 03:20:00,
2013-11-07 22:25:00,38.8,35.0,29.90,WNW,300,4.4,6.9,86,0.00,CLR,,0.59,0.0,WeatherDisplay:10.37,2013-11-08 03:25:00,
2013-11-07 22:30:00,38.9,35.1,29.90,WNW,300,3.0,6.0,86,0.00,CLR,,0.59,0.0,WeatherDisplay:10.37,2013-11-08 03:30:00,
2013-11-07 22:35:00,38.9,35.1,29.90,WNW,300,2.9,3.5,86,0.00,CLR,,0.59,0.0,WeatherDisplay:10.37,2013-11-08 03:35:00,
2013-11-07 22:40:00,39.0,35.2,29.90,WNW,300,3.5,4.6,86,0.00,CLR,,0.59,0.0,WeatherDisplay:10.37,2013-11-08 03:40:00,
2013-11-07 22:45:00,39.0,35.2,29.89,WNW,300,2.7,4.0,86,0.00,CLR,,0.59,0.0,WeatherDisplay:10.37,2013-11-08 03:45:00,
2013-11-07 22:50:00,39.1,35.3,29.89,WNW,300,2.1,3.5,86,0.00,CLR,,0.59,0.0,WeatherDisplay:10.37,2013-11-08 03:50:00,
2013-11-07 22:55:00,39.1,35.3,29.89,WNW,301,3.8,4.6,86,0.00,CLR,,0.59,0.0,WeatherDisplay:10.37,2013-11-08 03:55:00,
2013-11-07 23:00:00,39.1,35.0,29.89,WNW,301,2.5,4.6,85,0.00,CLR,,0.59,0.0,WeatherDisplay:10.37,2013-11-08 04:00:00,
2013-11-07 23:05:00,39.2,35.1,29.89,WNW,301,4.1,6.9,85,0.00,CLR,,0.59,0.0,WeatherDisplay:10.37,2013-11-08 04:05:00,
2013-11-07 23:10:00,39.2,35.1,29.89,WNW,301,2.3,3.5,85,0.00,CLR,,0.59,0.0,WeatherDisplay:10.37,2013-11-08 04:10:00,
2013-11-07 23:15:00,39.1,35.0,29.89,WNW,301,2.9,4.6,85,0.00,CLR,,0.59,0.0,WeatherDisplay:10.37,2013-11-08 04:15:00,
2013-11-07 23:20:00,39.0,34.9,29.89,NW,304,4.5,8.1,85,0.00,CLR,,0.59,0.0,WeatherDisplay:10.37,2013-11-08 04:20:00,
2013-11-07 23:25:00,38.9,35.1,29.90,WNW,302,3.0,3.5,86,0.00,CLR,,0.59,0.0,WeatherDisplay:10.37,2013-11-08 04:25:00,
2013-11-07 23:30:00,38.8,34.7,29.89,WNW,302,3.5,5.8,85,0.00,CLR,,0.59,0.0,WeatherDisplay:10.37,2013-11-08 04:30:00,
2013-11-07 23:35:00,38.8,35.0,29.89,WNW,302,3.9,5.8,86,0.00,CLR,,0.59,0.0,WeatherDisplay:10.37,2013-11-08 04:35:00,
2013-11-07 23:40:00,38.7,34.9,29.89,WNW,302,3.2,4.6,86,0.00,CLR,,0.59,0.0,WeatherDisplay:10.37,2013-11-08 04:40:00,
2013-11-07 23:45:00,38.6,34.8,29.89,WNW,302,1.5,3.5,86,0.00,CLR,,0.59,0.0,WeatherDisplay:10.37,2013-11-08 04:45:00,
2013-11-07 23:50:00,38.4,34.6,29.89,WNW,302,0.4,2.3,86,0.00,CLR,,0.59,0.0,WeatherDisplay:10.37,2013-11-08 04:50:00,
2013-11-07 23:55:00,38.3,34.5,29.89,WNW,302,0.6,2.3,86,0.00,CLR,,0.59,0.0,WeatherDisplay:10.37,2013-11-08 04:55:00,